sensor_id;sensor_type;location;lat;lon;timestamp;pressure;altitude;pressure_sealevel;temperature;humidity
72336;BME280;65062;48.446;8.834;2023-04-24T00:01:29;96540.09;;;8.67;93.41
72336;BME280;65062;48.446;8.834;2023-04-24T00:04:29;96537.72;;;8.78;93.00
72336;BME280;65062;48.446;8.834;2023-04-24T00:07:30;96553.75;;;8.69;93.84
72336;BME280;65062;48.446;8.834;2023-04-24T00:10:30;96562.78;;;8.66;93.02
72336;BME280;65062;48.446;8.834;2023-04-24T00:13:30;96563.16;;;8.63;93.13
72336;BME280;65062;48.446;8.834;2023-04-24T00:16:31;96568.38;;;8.63;94.24
72336;BME280;65062;48.446;8.834;2023-04-24T00:19:31;96558.19;;;8.75;93.88
72336;BME280;65062;48.446;8.834;2023-04-24T00:22:32;96556.84;;;8.98;92.22
72336;BME280;65062;48.446;8.834;2023-04-24T00:25:32;96564.84;;;8.90;92.49
72336;BME280;65062;48.446;8.834;2023-04-24T00:28:32;96568.63;;;8.81;92.96
72336;BME280;65062;48.446;8.834;2023-04-24T00:31:33;96555.81;;;8.93;93.51
72336;BME280;65062;48.446;8.834;2023-04-24T00:34:36;96554.00;;;8.93;92.96
72336;BME280;65062;48.446;8.834;2023-04-24T00:37:38;96550.81;;;8.91;92.26
72336;BME280;65062;48.446;8.834;2023-04-24T00:40:38;96547.19;;;8.92;92.20
72336;BME280;65062;48.446;8.834;2023-04-24T00:43:39;96548.97;;;8.92;92.10
72336;BME280;65062;48.446;8.834;2023-04-24T00:46:40;96544.97;;;8.89;92.86
72336;BME280;65062;48.446;8.834;2023-04-24T00:49:40;96538.94;;;8.89;92.85
72336;BME280;65062;48.446;8.834;2023-04-24T00:52:40;96541.75;;;8.87;92.58
72336;BME280;65062;48.446;8.834;2023-04-24T00:55:41;96544.97;;;8.96;93.07
72336;BME280;65062;48.446;8.834;2023-04-24T00:58:42;96540.38;;;8.91;93.51
72336;BME280;65062;48.446;8.834;2023-04-24T01:01:43;96539.56;;;8.91;93.05
72336;BME280;65062;48.446;8.834;2023-04-24T01:04:44;96534.53;;;8.96;92.48
72336;BME280;65062;48.446;8.834;2023-04-24T01:07:45;96531.13;;;8.95;93.10
72336;BME280;65062;48.446;8.834;2023-04-24T01:10:47;96528.09;;;8.92;92.56
72336;BME280;65062;48.446;8.834;2023-04-24T01:13:48;96532.13;;;8.94;93.83
72336;BME280;65062;48.446;8.834;2023-04-24T01:16:48;96524.50;;;8.99;92.74
72336;BME280;65062;48.446;8.834;2023-04-24T01:19:49;96523.09;;;8.90;92.98
72336;BME280;65062;48.446;8.834;2023-04-24T01:22:49;96518.09;;;8.95;92.27
72336;BME280;65062;48.446;8.834;2023-04-24T01:25:50;96517.28;;;8.88;92.96
72336;BME280;65062;48.446;8.834;2023-04-24T01:28:51;96519.72;;;9.03;93.06
72336;BME280;65062;48.446;8.834;2023-04-24T01:31:52;96517.09;;;8.96;93.18
72336;BME280;65062;48.446;8.834;2023-04-24T01:34:54;96519.69;;;8.96;92.48
72336;BME280;65062;48.446;8.834;2023-04-24T01:37:55;96523.50;;;9.00;91.93
72336;BME280;65062;48.446;8.834;2023-04-24T01:40:55;96517.28;;;8.95;92.75
72336;BME280;65062;48.446;8.834;2023-04-24T01:43:57;96516.09;;;9.04;92.49
72336;BME280;65062;48.446;8.834;2023-04-24T01:46:58;96514.50;;;9.03;92.84
72336;BME280;65062;48.446;8.834;2023-04-24T01:49:58;96525.34;;;9.13;93.48
72336;BME280;65062;48.446;8.834;2023-04-24T01:52:59;96522.13;;;9.04;92.51
72336;BME280;65062;48.446;8.834;2023-04-24T01:55:59;96517.66;;;8.92;92.91
72336;BME280;65062;48.446;8.834;2023-04-24T01:59:02;96514.47;;;8.96;93.57
72336;BME280;65062;48.446;8.834;2023-04-24T02:02:03;96524.72;;;8.91;93.31
72336;BME280;65062;48.446;8.834;2023-04-24T02:05:06;96528.91;;;8.86;92.78
72336;BME280;65062;48.446;8.834;2023-04-24T02:08:06;96526.50;;;8.91;93.95
72336;BME280;65062;48.446;8.834;2023-04-24T02:11:08;96521.88;;;8.93;94.14
72336;BME280;65062;48.446;8.834;2023-04-24T02:14:09;96520.88;;;8.87;93.51
72336;BME280;65062;48.446;8.834;2023-04-24T02:17:10;96520.66;;;8.76;93.00
72336;BME280;65062;48.446;8.834;2023-04-24T02:20:12;96511.59;;;8.65;94.52
72336;BME280;65062;48.446;8.834;2023-04-24T02:23:12;96514.78;;;8.61;94.15
72336;BME280;65062;48.446;8.834;2023-04-24T02:26:13;96512.81;;;8.63;94.79
72336;BME280;65062;48.446;8.834;2023-04-24T02:29:14;96511.59;;;8.65;94.49
72336;BME280;65062;48.446;8.834;2023-04-24T02:32:15;96510.41;;;8.68;94.54
72336;BME280;65062;48.446;8.834;2023-04-24T02:35:15;96519.25;;;8.73;94.68
72336;BME280;65062;48.446;8.834;2023-04-24T02:38:16;96531.91;;;8.76;95.08
72336;BME280;65062;48.446;8.834;2023-04-24T02:41:16;96531.91;;;8.96;94.85
72336;BME280;65062;48.446;8.834;2023-04-24T02:44:16;96536.53;;;9.00;94.44
72336;BME280;65062;48.446;8.834;2023-04-24T02:47:17;96525.72;;;9.03;93.92
72336;BME280;65062;48.446;8.834;2023-04-24T02:50:17;96529.94;;;9.04;94.19
72336;BME280;65062;48.446;8.834;2023-04-24T02:53:18;96534.97;;;9.19;93.57
72336;BME280;65062;48.446;8.834;2023-04-24T02:56:18;96543.22;;;9.29;91.78
72336;BME280;65062;48.446;8.834;2023-04-24T02:59:19;96542.41;;;9.41;87.85
72336;BME280;65062;48.446;8.834;2023-04-24T03:02:19;96523.75;;;9.38;88.32
72336;BME280;65062;48.446;8.834;2023-04-24T03:05:20;96521.13;;;9.31;88.39
72336;BME280;65062;48.446;8.834;2023-04-24T03:08:21;96519.31;;;9.19;87.53
72336;BME280;65062;48.446;8.834;2023-04-24T03:11:21;96514.50;;;9.03;88.09
72336;BME280;65062;48.446;8.834;2023-04-24T03:14:22;96506.84;;;8.88;89.55
72336;BME280;65062;48.446;8.834;2023-04-24T03:17:22;96500.41;;;8.78;90.37
72336;BME280;65062;48.446;8.834;2023-04-24T03:20:23;96501.19;;;8.78;91.27
72336;BME280;65062;48.446;8.834;2023-04-24T03:23:23;96506.78;;;8.62;90.04
72336;BME280;65062;48.446;8.834;2023-04-24T03:26:24;96503.53;;;8.53;91.78
72336;BME280;65062;48.446;8.834;2023-04-24T03:29:24;96509.19;;;8.57;91.55
72336;BME280;65062;48.446;8.834;2023-04-24T03:32:25;96514.00;;;8.60;92.91
72336;BME280;65062;48.446;8.834;2023-04-24T03:35:25;96501.94;;;8.59;93.29
72336;BME280;65062;48.446;8.834;2023-04-24T03:38:26;96491.31;;;8.61;93.78
72336;BME280;65062;48.446;8.834;2023-04-24T03:41:26;96489.34;;;8.69;93.54
72336;BME280;65062;48.446;8.834;2023-04-24T03:44:26;96489.94;;;8.71;93.52
72336;BME280;65062;48.446;8.834;2023-04-24T03:47:27;96486.91;;;8.61;93.47
72336;BME280;65062;48.446;8.834;2023-04-24T03:50:27;96494.28;;;8.38;93.21
72336;BME280;65062;48.446;8.834;2023-04-24T03:53:29;96497.97;;;8.16;94.33
72336;BME280;65062;48.446;8.834;2023-04-24T03:56:29;96502.78;;;8.12;93.94
72336;BME280;65062;48.446;8.834;2023-04-24T03:59:30;96508.75;;;8.06;95.67
72336;BME280;65062;48.446;8.834;2023-04-24T04:02:30;96505.94;;;8.01;94.91
72336;BME280;65062;48.446;8.834;2023-04-24T04:05:31;96502.53;;;8.01;95.19
72336;BME280;65062;48.446;8.834;2023-04-24T04:08:31;96511.72;;;7.97;96.03
72336;BME280;65062;48.446;8.834;2023-04-24T04:11:31;96518.16;;;8.01;95.86
72336;BME280;65062;48.446;8.834;2023-04-24T04:14:32;96516.41;;;8.14;96.83
72336;BME280;65062;48.446;8.834;2023-04-24T04:17:32;96537.66;;;8.18;97.31
72336;BME280;65062;48.446;8.834;2023-04-24T04:20:32;96551.78;;;8.23;97.02
72336;BME280;65062;48.446;8.834;2023-04-24T04:23:33;96573.94;;;8.47;96.73
72336;BME280;65062;48.446;8.834;2023-04-24T04:26:33;96565.94;;;8.55;96.42
72336;BME280;65062;48.446;8.834;2023-04-24T04:29:35;96559.78;;;8.69;94.52
72336;BME280;65062;48.446;8.834;2023-04-24T04:32:35;96572.16;;;8.61;94.85
72336;BME280;65062;48.446;8.834;2023-04-24T04:35:36;96572.56;;;8.57;94.00
72336;BME280;65062;48.446;8.834;2023-04-24T04:38:36;96588.19;;;8.57;88.65
72336;BME280;65062;48.446;8.834;2023-04-24T04:41:37;96596.59;;;8.46;88.66
72336;BME280;65062;48.446;8.834;2023-04-24T04:44:40;96605.34;;;8.32;89.10
72336;BME280;65062;48.446;8.834;2023-04-24T04:47:40;96610.81;;;8.16;91.27
72336;BME280;65062;48.446;8.834;2023-04-24T04:50:41;96608.94;;;8.25;89.40
72336;BME280;65062;48.446;8.834;2023-04-24T04:53:41;96600.28;;;8.24;89.70
72336;BME280;65062;48.446;8.834;2023-04-24T04:56:42;96613.53;;;8.29;88.92
72336;BME280;65062;48.446;8.834;2023-04-24T04:59:42;96619.84;;;8.14;88.37
72336;BME280;65062;48.446;8.834;2023-04-24T05:02:42;96625.19;;;8.06;90.41
72336;BME280;65062;48.446;8.834;2023-04-24T05:05:43;96624.88;;;8.15;90.25
72336;BME280;65062;48.446;8.834;2023-04-24T05:08:43;96615.47;;;8.21;89.90
72336;BME280;65062;48.446;8.834;2023-04-24T05:11:44;96620.59;;;8.08;90.12
72336;BME280;65062;48.446;8.834;2023-04-24T05:14:44;96617.25;;;8.14;90.03
72336;BME280;65062;48.446;8.834;2023-04-24T05:17:45;96624.03;;;8.08;91.72
72336;BME280;65062;48.446;8.834;2023-04-24T05:20:45;96635.91;;;8.17;92.57
72336;BME280;65062;48.446;8.834;2023-04-24T05:23:45;96644.53;;;8.18;94.19
72336;BME280;65062;48.446;8.834;2023-04-24T05:26:46;96654.53;;;8.14;93.20
72336;BME280;65062;48.446;8.834;2023-04-24T05:29:47;96655.94;;;8.17;92.03
72336;BME280;65062;48.446;8.834;2023-04-24T05:32:47;96665.16;;;8.13;92.00
72336;BME280;65062;48.446;8.834;2023-04-24T05:35:48;96667.59;;;8.21;92.23
72336;BME280;65062;48.446;8.834;2023-04-24T05:38:48;96662.16;;;8.16;93.69
72336;BME280;65062;48.446;8.834;2023-04-24T05:41:49;96673.94;;;8.12;93.20
72336;BME280;65062;48.446;8.834;2023-04-24T05:44:49;96671.59;;;8.17;93.08
72336;BME280;65062;48.446;8.834;2023-04-24T05:47:49;96682.97;;;8.09;94.41
72336;BME280;65062;48.446;8.834;2023-04-24T05:50:52;96684.72;;;8.02;94.33
72336;BME280;65062;48.446;8.834;2023-04-24T05:53:52;96684.66;;;7.96;94.32
72336;BME280;65062;48.446;8.834;2023-04-24T05:56:53;96688.91;;;8.03;93.62
72336;BME280;65062;48.446;8.834;2023-04-24T05:59:55;96683.31;;;8.00;93.57
72336;BME280;65062;48.446;8.834;2023-04-24T06:02:56;96685.44;;;8.17;92.47
72336;BME280;65062;48.446;8.834;2023-04-24T06:05:56;96685.75;;;8.29;90.66
72336;BME280;65062;48.446;8.834;2023-04-24T06:08:56;96699.25;;;8.39;89.69
72336;BME280;65062;48.446;8.834;2023-04-24T06:11:58;96695.69;;;8.46;89.07
72336;BME280;65062;48.446;8.834;2023-04-24T06:15:00;96686.53;;;8.57;88.36
72336;BME280;65062;48.446;8.834;2023-04-24T06:18:00;96689.38;;;8.69;87.25
72336;BME280;65062;48.446;8.834;2023-04-24T06:21:00;96695.25;;;8.77;85.63
72336;BME280;65062;48.446;8.834;2023-04-24T06:24:01;96690.31;;;8.95;85.88
72336;BME280;65062;48.446;8.834;2023-04-24T06:27:01;96687.56;;;9.10;86.98
72336;BME280;65062;48.446;8.834;2023-04-24T06:30:03;96687.81;;;9.34;88.45
72336;BME280;65062;48.446;8.834;2023-04-24T06:33:03;96680.47;;;9.57;82.53
72336;BME280;65062;48.446;8.834;2023-04-24T06:36:03;96685.72;;;9.83;82.10
72336;BME280;65062;48.446;8.834;2023-04-24T06:39:04;96675.66;;;9.93;80.22
72336;BME280;65062;48.446;8.834;2023-04-24T06:42:04;96688.97;;;10.11;79.89
72336;BME280;65062;48.446;8.834;2023-04-24T06:45:05;96687.31;;;10.30;77.21
72336;BME280;65062;48.446;8.834;2023-04-24T06:48:06;96692.53;;;10.49;78.49
72336;BME280;65062;48.446;8.834;2023-04-24T06:51:06;96696.34;;;10.60;77.04
72336;BME280;65062;48.446;8.834;2023-04-24T06:54:06;96700.69;;;10.86;79.25
72336;BME280;65062;48.446;8.834;2023-04-24T06:57:08;96696.78;;;11.08;77.90
72336;BME280;65062;48.446;8.834;2023-04-24T07:00:09;96723.78;;;11.08;74.01
72336;BME280;65062;48.446;8.834;2023-04-24T07:03:09;96730.56;;;11.22;75.18
72336;BME280;65062;48.446;8.834;2023-04-24T07:06:10;96718.47;;;11.28;72.70
72336;BME280;65062;48.446;8.834;2023-04-24T07:09:13;96724.19;;;11.12;72.83
72336;BME280;65062;48.446;8.834;2023-04-24T07:12:14;96725.63;;;10.95;75.33
72336;BME280;65062;48.446;8.834;2023-04-24T07:15:14;96735.50;;;10.99;73.40
72336;BME280;65062;48.446;8.834;2023-04-24T07:18:14;96738.97;;;10.87;75.49
72336;BME280;65062;48.446;8.834;2023-04-24T07:21:15;96752.66;;;10.82;73.22
72336;BME280;65062;48.446;8.834;2023-04-24T07:24:15;96759.50;;;10.77;73.04
72336;BME280;65062;48.446;8.834;2023-04-24T07:27:16;96753.50;;;10.56;73.56
72336;BME280;65062;48.446;8.834;2023-04-24T07:30:16;96765.59;;;10.38;73.05
72336;BME280;65062;48.446;8.834;2023-04-24T07:33:16;96772.84;;;10.23;76.44
72336;BME280;65062;48.446;8.834;2023-04-24T07:36:17;96777.84;;;10.11;72.42
72336;BME280;65062;48.446;8.834;2023-04-24T07:39:19;96784.25;;;10.02;73.49
72336;BME280;65062;48.446;8.834;2023-04-24T07:42:19;96789.47;;;10.02;73.83
72336;BME280;65062;48.446;8.834;2023-04-24T07:45:19;96786.06;;;9.95;71.73
72336;BME280;65062;48.446;8.834;2023-04-24T07:48:20;96790.31;;;10.09;73.76
72336;BME280;65062;48.446;8.834;2023-04-24T07:51:22;96789.94;;;10.19;72.18
72336;BME280;65062;48.446;8.834;2023-04-24T07:54:22;96790.72;;;10.19;71.75
72336;BME280;65062;48.446;8.834;2023-04-24T07:57:22;96804.81;;;10.18;70.22
72336;BME280;65062;48.446;8.834;2023-04-24T08:00:23;96799.56;;;10.18;71.29
72336;BME280;65062;48.446;8.834;2023-04-24T08:03:23;96806.63;;;10.24;63.63
72336;BME280;65062;48.446;8.834;2023-04-24T08:06:24;96798.56;;;10.13;68.17
72336;BME280;65062;48.446;8.834;2023-04-24T08:09:28;96810.47;;;10.22;70.54
72336;BME280;65062;48.446;8.834;2023-04-24T08:12:28;96813.69;;;10.43;66.71
72336;BME280;65062;48.446;8.834;2023-04-24T08:15:29;96831.41;;;10.68;67.14
72336;BME280;65062;48.446;8.834;2023-04-24T08:18:30;96822.88;;;11.05;64.68
72336;BME280;65062;48.446;8.834;2023-04-24T08:21:30;96825.31;;;11.13;64.11
72336;BME280;65062;48.446;8.834;2023-04-24T08:24:31;96825.13;;;11.01;64.89
72336;BME280;65062;48.446;8.834;2023-04-24T08:27:32;96848.09;;;10.80;63.21
72336;BME280;65062;48.446;8.834;2023-04-24T08:30:32;96824.72;;;10.78;64.63
72336;BME280;65062;48.446;8.834;2023-04-24T08:33:33;96833.00;;;10.82;63.12
72336;BME280;65062;48.446;8.834;2023-04-24T08:36:37;96830.94;;;11.03;63.34
72336;BME280;65062;48.446;8.834;2023-04-24T08:39:37;96845.16;;;11.53;61.84
72336;BME280;65062;48.446;8.834;2023-04-24T08:42:38;96844.81;;;11.87;58.81
72336;BME280;65062;48.446;8.834;2023-04-24T08:45:39;96838.53;;;11.94;60.75
72336;BME280;65062;48.446;8.834;2023-04-24T08:48:40;96864.47;;;11.65;56.92
72336;BME280;65062;48.446;8.834;2023-04-24T08:51:41;96859.63;;;11.62;58.72
72336;BME280;65062;48.446;8.834;2023-04-24T08:54:42;96864.16;;;11.35;57.98
72336;BME280;65062;48.446;8.834;2023-04-24T08:57:50;96853.31;;;10.80;58.87
72336;BME280;65062;48.446;8.834;2023-04-24T09:00:51;96866.03;;;10.63;59.59
72336;BME280;65062;48.446;8.834;2023-04-24T09:03:52;96867.84;;;10.82;60.48
72336;BME280;65062;48.446;8.834;2023-04-24T09:06:57;96879.50;;;10.80;60.48
72336;BME280;65062;48.446;8.834;2023-04-24T09:09:59;96879.88;;;11.22;60.79
72336;BME280;65062;48.446;8.834;2023-04-24T09:12:59;96885.34;;;10.95;59.57
72336;BME280;65062;48.446;8.834;2023-04-24T09:16:02;96892.16;;;11.15;60.52
72336;BME280;65062;48.446;8.834;2023-04-24T09:19:02;96886.53;;;11.18;61.20
72336;BME280;65062;48.446;8.834;2023-04-24T09:22:07;96885.91;;;11.23;62.91
72336;BME280;65062;48.446;8.834;2023-04-24T09:25:09;96881.72;;;11.02;63.33
72336;BME280;65062;48.446;8.834;2023-04-24T09:28:15;96892.19;;;10.83;63.64
72336;BME280;65062;48.446;8.834;2023-04-24T09:31:18;96895.00;;;11.01;60.16
72336;BME280;65062;48.446;8.834;2023-04-24T09:34:25;96883.09;;;11.24;61.86
72336;BME280;65062;48.446;8.834;2023-04-24T09:37:29;96886.28;;;11.46;61.42
72336;BME280;65062;48.446;8.834;2023-04-24T09:40:30;96879.09;;;11.98;59.73
72336;BME280;65062;48.446;8.834;2023-04-24T09:43:35;96895.84;;;12.66;61.22
72336;BME280;65062;48.446;8.834;2023-04-24T09:46:35;96909.19;;;12.64;56.61
72336;BME280;65062;48.446;8.834;2023-04-24T09:49:36;96921.34;;;12.21;52.86
72336;BME280;65062;48.446;8.834;2023-04-24T09:52:47;96907.38;;;11.77;53.47
72336;BME280;65062;48.446;8.834;2023-04-24T09:56:01;96905.78;;;11.56;53.85
72336;BME280;65062;48.446;8.834;2023-04-24T09:59:08;96911.66;;;11.52;55.50
72336;BME280;65062;48.446;8.834;2023-04-24T10:02:19;96891.50;;;11.59;51.61
72336;BME280;65062;48.446;8.834;2023-04-24T10:05:23;96913.72;;;12.07;51.02
72336;BME280;65062;48.446;8.834;2023-04-24T10:08:24;96918.91;;;12.20;49.85
72336;BME280;65062;48.446;8.834;2023-04-24T10:11:28;96910.81;;;12.59;53.07
72336;BME280;65062;48.446;8.834;2023-04-24T10:14:29;96886.91;;;12.98;53.87
72336;BME280;65062;48.446;8.834;2023-04-24T10:17:30;96904.09;;;13.01;51.96
72336;BME280;65062;48.446;8.834;2023-04-24T10:20:31;96905.13;;;12.93;52.13
72336;BME280;65062;48.446;8.834;2023-04-24T10:23:32;96901.09;;;13.22;53.77
72336;BME280;65062;48.446;8.834;2023-04-24T10:26:33;96908.88;;;13.28;50.09
72336;BME280;65062;48.446;8.834;2023-04-24T10:29:35;96899.59;;;13.68;54.79
72336;BME280;65062;48.446;8.834;2023-04-24T10:32:36;96927.63;;;13.14;51.31
72336;BME280;65062;48.446;8.834;2023-04-24T10:35:42;96926.97;;;13.61;51.44
72336;BME280;65062;48.446;8.834;2023-04-24T10:38:45;96920.81;;;13.06;54.38
72336;BME280;65062;48.446;8.834;2023-04-24T10:41:48;96944.53;;;13.85;51.00
72336;BME280;65062;48.446;8.834;2023-04-24T10:44:49;96934.50;;;13.57;50.61
72336;BME280;65062;48.446;8.834;2023-04-24T10:47:54;96920.72;;;13.98;51.83
72336;BME280;65062;48.446;8.834;2023-04-24T10:50:56;96945.25;;;13.07;48.98
72336;BME280;65062;48.446;8.834;2023-04-24T10:53:57;96946.28;;;13.30;53.01
72336;BME280;65062;48.446;8.834;2023-04-24T11:00:25;96957.47;;;14.04;49.76
72336;BME280;65062;48.446;8.834;2023-04-24T11:03:29;96948.19;;;14.02;50.19
72336;BME280;65062;48.446;8.834;2023-04-24T11:06:34;96941.75;;;14.16;49.29
72336;BME280;65062;48.446;8.834;2023-04-24T11:09:36;96960.97;;;14.52;48.27
72336;BME280;65062;48.446;8.834;2023-04-24T11:12:37;96964.13;;;14.07;48.09
72336;BME280;65062;48.446;8.834;2023-04-24T11:15:37;96964.13;;;14.07;47.80
72336;BME280;65062;48.446;8.834;2023-04-24T11:18:44;96974.84;;;14.41;48.40
72336;BME280;65062;48.446;8.834;2023-04-24T11:22:01;96973.03;;;14.06;49.34
72336;BME280;65062;48.446;8.834;2023-04-24T11:25:03;96977.66;;;13.68;48.62
72336;BME280;65062;48.446;8.834;2023-04-24T11:28:04;96987.44;;;13.61;49.42
72336;BME280;65062;48.446;8.834;2023-04-24T11:31:34;96984.44;;;13.08;47.00
72336;BME280;65062;48.446;8.834;2023-04-24T11:34:38;96997.63;;;12.13;51.91
72336;BME280;65062;48.446;8.834;2023-04-24T11:37:43;97005.81;;;11.66;51.79
72336;BME280;65062;48.446;8.834;2023-04-24T11:40:47;97010.22;;;11.27;55.04
72336;BME280;65062;48.446;8.834;2023-04-24T11:43:50;97018.09;;;11.07;57.79
72336;BME280;65062;48.446;8.834;2023-04-24T11:46:50;97030.53;;;10.79;54.68
72336;BME280;65062;48.446;8.834;2023-04-24T11:49:50;97040.53;;;10.63;57.22
72336;BME280;65062;48.446;8.834;2023-04-24T11:52:53;97028.88;;;10.72;55.35
72336;BME280;65062;48.446;8.834;2023-04-24T11:55:53;97028.50;;;10.94;55.32
72336;BME280;65062;48.446;8.834;2023-04-24T11:58:53;97028.19;;;11.23;56.94
72336;BME280;65062;48.446;8.834;2023-04-24T12:01:54;97026.31;;;10.98;55.16
72336;BME280;65062;48.446;8.834;2023-04-24T12:04:55;97035.81;;;11.05;58.63
72336;BME280;65062;48.446;8.834;2023-04-24T12:07:56;97049.03;;;10.78;53.84
72336;BME280;65062;48.446;8.834;2023-04-24T12:10:56;97036.56;;;10.86;56.13
72336;BME280;65062;48.446;8.834;2023-04-24T12:13:57;97042.41;;;10.82;54.95
72336;BME280;65062;48.446;8.834;2023-04-24T12:16:57;97043.56;;;10.66;55.42
72336;BME280;65062;48.446;8.834;2023-04-24T12:20:01;97045.75;;;10.63;58.42
72336;BME280;65062;48.446;8.834;2023-04-24T12:23:02;97048.72;;;10.53;57.79
72336;BME280;65062;48.446;8.834;2023-04-24T12:26:05;97048.91;;;10.45;57.41
72336;BME280;65062;48.446;8.834;2023-04-24T12:29:06;97040.53;;;10.63;57.99
72336;BME280;65062;48.446;8.834;2023-04-24T12:32:16;97046.78;;;10.68;57.34
72336;BME280;65062;48.446;8.834;2023-04-24T12:35:20;97035.72;;;10.66;56.04
72336;BME280;65062;48.446;8.834;2023-04-24T12:38:25;97041.22;;;10.97;56.15
72336;BME280;65062;48.446;8.834;2023-04-24T12:41:26;97027.34;;;11.23;56.08
72336;BME280;65062;48.446;8.834;2023-04-24T12:44:30;97030.00;;;11.88;53.27
72336;BME280;65062;48.446;8.834;2023-04-24T12:47:32;97001.63;;;12.73;49.81
72336;BME280;65062;48.446;8.834;2023-04-24T12:50:33;97015.34;;;15.93;47.90
72336;BME280;65062;48.446;8.834;2023-04-24T12:53:34;97001.91;;;18.29;39.95
72336;BME280;65062;48.446;8.834;2023-04-24T12:56:34;97006.16;;;19.85;38.27
72336;BME280;65062;48.446;8.834;2023-04-24T12:59:39;96999.22;;;20.15;35.28
72336;BME280;65062;48.446;8.834;2023-04-24T13:02:39;96996.69;;;21.07;32.17
72336;BME280;65062;48.446;8.834;2023-04-24T13:05:41;97001.25;;;17.35;37.73
72336;BME280;65062;48.446;8.834;2023-04-24T13:08:42;97000.09;;;18.51;38.72
72336;BME280;65062;48.446;8.834;2023-04-24T13:11:42;97008.75;;;16.42;39.46
72336;BME280;65062;48.446;8.834;2023-04-24T13:14:43;97002.53;;;15.33;40.49
72336;BME280;65062;48.446;8.834;2023-04-24T13:17:43;97007.78;;;14.32;42.77
72336;BME280;65062;48.446;8.834;2023-04-24T13:20:43;97008.47;;;14.03;47.05
72336;BME280;65062;48.446;8.834;2023-04-24T13:23:45;97001.06;;;13.02;45.48
72336;BME280;65062;48.446;8.834;2023-04-24T13:26:46;97006.34;;;12.58;49.31
72336;BME280;65062;48.446;8.834;2023-04-24T13:29:46;97010.19;;;11.98;50.62
72336;BME280;65062;48.446;8.834;2023-04-24T13:32:47;97010.84;;;11.81;51.59
72336;BME280;65062;48.446;8.834;2023-04-24T13:35:47;97006.38;;;11.88;53.17
72336;BME280;65062;48.446;8.834;2023-04-24T13:38:47;97003.47;;;12.15;51.35
72336;BME280;65062;48.446;8.834;2023-04-24T13:41:48;97008.66;;;12.35;53.05
72336;BME280;65062;48.446;8.834;2023-04-24T13:44:48;96997.66;;;12.57;51.97
72336;BME280;65062;48.446;8.834;2023-04-24T13:47:48;96995.53;;;12.79;50.02
72336;BME280;65062;48.446;8.834;2023-04-24T13:50:49;96996.44;;;12.60;49.38
72336;BME280;65062;48.446;8.834;2023-04-24T13:53:49;96991.47;;;12.83;48.87
72336;BME280;65062;48.446;8.834;2023-04-24T13:56:51;96990.34;;;12.97;49.53
72336;BME280;65062;48.446;8.834;2023-04-24T13:59:51;96991.00;;;12.93;50.07
72336;BME280;65062;48.446;8.834;2023-04-24T14:02:52;96989.22;;;13.18;49.57
72336;BME280;65062;48.446;8.834;2023-04-24T14:05:52;96989.34;;;12.98;48.66
72336;BME280;65062;48.446;8.834;2023-04-24T14:08:52;96990.19;;;12.92;48.63
72336;BME280;65062;48.446;8.834;2023-04-24T14:11:53;96996.88;;;13.19;49.78
72336;BME280;65062;48.446;8.834;2023-04-24T14:14:53;96999.56;;;13.62;48.62
72336;BME280;65062;48.446;8.834;2023-04-24T14:17:54;96991.47;;;13.63;47.65
72336;BME280;65062;48.446;8.834;2023-04-24T14:20:54;96984.03;;;13.78;46.35
72336;BME280;65062;48.446;8.834;2023-04-24T14:23:54;96997.59;;;14.00;45.34
72336;BME280;65062;48.446;8.834;2023-04-24T14:26:55;96995.78;;;13.33;46.32
72336;BME280;65062;48.446;8.834;2023-04-24T14:29:56;96989.50;;;13.34;47.92
72336;BME280;65062;48.446;8.834;2023-04-24T14:32:56;96987.31;;;13.31;47.32
72336;BME280;65062;48.446;8.834;2023-04-24T14:35:57;96986.66;;;13.11;48.59
72336;BME280;65062;48.446;8.834;2023-04-24T14:38:57;96984.84;;;13.12;46.34
72336;BME280;65062;48.446;8.834;2023-04-24T14:41:57;96988.16;;;13.25;45.80
72336;BME280;65062;48.446;8.834;2023-04-24T14:44:58;96982.09;;;13.49;48.31
72336;BME280;65062;48.446;8.834;2023-04-24T14:47:58;96969.50;;;13.76;48.07
72336;BME280;65062;48.446;8.834;2023-04-24T14:50:58;96973.91;;;13.82;47.19
72336;BME280;65062;48.446;8.834;2023-04-24T14:53:59;96978.75;;;14.03;46.67
72336;BME280;65062;48.446;8.834;2023-04-24T14:56:59;96981.28;;;13.91;45.84
72336;BME280;65062;48.446;8.834;2023-04-24T15:00:04;96979.69;;;13.90;46.95
72336;BME280;65062;48.446;8.834;2023-04-24T15:03:10;96968.78;;;13.69;48.85
72336;BME280;65062;48.446;8.834;2023-04-24T15:06:10;96968.72;;;13.93;45.55
72336;BME280;65062;48.446;8.834;2023-04-24T15:09:10;96984.53;;;14.11;48.15
72336;BME280;65062;48.446;8.834;2023-04-24T15:12:11;96969.81;;;15.40;43.46
72336;BME280;65062;48.446;8.834;2023-04-24T15:15:12;96970.34;;;18.06;39.13
72336;BME280;65062;48.446;8.834;2023-04-24T15:18:12;96954.50;;;22.93;29.82
72336;BME280;65062;48.446;8.834;2023-04-24T15:21:13;96953.91;;;24.25;27.18
72336;BME280;65062;48.446;8.834;2023-04-24T15:24:13;96955.00;;;25.78;24.63
72336;BME280;65062;48.446;8.834;2023-04-24T15:27:14;96955.84;;;26.46;20.76
72336;BME280;65062;48.446;8.834;2023-04-24T15:30:14;96958.44;;;27.49;22.56
72336;BME280;65062;48.446;8.834;2023-04-24T15:33:15;96956.75;;;26.01;23.23
72336;BME280;65062;48.446;8.834;2023-04-24T15:36:16;96954.84;;;27.32;21.47
72336;BME280;65062;48.446;8.834;2023-04-24T15:39:17;96959.84;;;27.25;20.33
72336;BME280;65062;48.446;8.834;2023-04-24T15:42:18;96950.59;;;26.14;22.09
72336;BME280;65062;48.446;8.834;2023-04-24T15:45:18;96956.06;;;25.08;23.61
72336;BME280;65062;48.446;8.834;2023-04-24T15:48:18;96945.81;;;25.65;23.75
72336;BME280;65062;48.446;8.834;2023-04-24T15:51:19;96948.91;;;25.72;23.29
72336;BME280;65062;48.446;8.834;2023-04-24T15:54:19;96955.00;;;25.78;22.45
72336;BME280;65062;48.446;8.834;2023-04-24T15:57:20;96955.53;;;23.69;24.50
72336;BME280;65062;48.446;8.834;2023-04-24T16:00:20;96955.75;;;24.30;25.06
72336;BME280;65062;48.446;8.834;2023-04-24T16:03:21;96954.81;;;23.87;25.54
72336;BME280;65062;48.446;8.834;2023-04-24T16:06:21;96954.47;;;20.59;29.33
72336;BME280;65062;48.446;8.834;2023-04-24T16:09:22;96954.25;;;19.04;33.48